Barnesville, Georgia
Current Conditions -  °F | °C
As of 4:15 AM on Sunday 21 Dec 2014 (Local Time) from KOPN Reporting Station
Haze Haze  
Wind Chill: 48°   Ceiling: 300
Heat Index: 48°   Visibility: 1.2mi
Dew Point: 48°   Wind: 3mph
Humidity: 100%   Direction: 40°NE
Pressure: 30.19"   Gusts: NA
Location:  33.05°N, 84.16°W
Report Text: KOPN 210915Z AUTO 04003KT 1 1/4SM BR OVC003 09/09 A3019 RMK AO2
Loading
Personal Weather Stations






























Interactive Weather Map New forecast layout! Learn more

10-Day Weather Forecast

Advertisements
Track Severe Weather on mobile